sensor_id;sensor_type;location;lat;lon;timestamp;P1;durP1;ratioP1;P2;durP2;ratioP2
59530;SDS011;45349;48.692;8.186;2022-08-01T00:00:04;4.40;;;2.50;;
59530;SDS011;45349;48.692;8.186;2022-08-01T00:02:33;3.10;;;2.57;;
59530;SDS011;45349;48.692;8.186;2022-08-01T00:05:00;3.67;;;2.67;;
59530;SDS011;45349;48.692;8.186;2022-08-01T00:07:28;6.37;;;2.47;;
59530;SDS011;45349;48.692;8.186;2022-08-01T00:09:54;3.97;;;2.47;;
59530;SDS011;45349;48.692;8.186;2022-08-01T00:12:21;3.50;;;2.20;;
59530;SDS011;45349;48.692;8.186;2022-08-01T00:14:48;3.47;;;2.70;;
59530;SDS011;45349;48.692;8.186;2022-08-01T00:17:14;2.87;;;2.57;;
59530;SDS011;45349;48.692;8.186;2022-08-01T00:19:41;6.63;;;2.80;;
59530;SDS011;45349;48.692;8.186;2022-08-01T00:22:08;3.70;;;3.13;;
59530;SDS011;45349;48.692;8.186;2022-08-01T00:24:38;3.47;;;2.90;;
59530;SDS011;45349;48.692;8.186;2022-08-01T00:27:05;3.30;;;2.60;;
59530;SDS011;45349;48.692;8.186;2022-08-01T00:29:32;4.53;;;2.60;;
59530;SDS011;45349;48.692;8.186;2022-08-01T00:31:59;3.93;;;2.70;;
59530;SDS011;45349;48.692;8.186;2022-08-01T00:34:26;3.80;;;2.90;;
59530;SDS011;45349;48.692;8.186;2022-08-01T00:36:52;3.30;;;2.53;;
59530;SDS011;45349;48.692;8.186;2022-08-01T00:39:19;6.03;;;3.10;;
59530;SDS011;45349;48.692;8.186;2022-08-01T00:41:47;3.73;;;3.07;;
59530;SDS011;45349;48.692;8.186;2022-08-01T00:44:14;5.07;;;2.77;;
59530;SDS011;45349;48.692;8.186;2022-08-01T00:46:41;3.13;;;2.50;;
59530;SDS011;45349;48.692;8.186;2022-08-01T00:49:08;7.57;;;2.90;;
59530;SDS011;45349;48.692;8.186;2022-08-01T00:51:35;8.20;;;3.27;;
59530;SDS011;45349;48.692;8.186;2022-08-01T00:54:02;3.93;;;2.90;;
59530;SDS011;45349;48.692;8.186;2022-08-01T00:56:29;3.37;;;3.07;;
59530;SDS011;45349;48.692;8.186;2022-08-01T00:58:57;3.23;;;2.93;;
59530;SDS011;45349;48.692;8.186;2022-08-01T01:01:24;3.30;;;2.70;;
59530;SDS011;45349;48.692;8.186;2022-08-01T01:03:51;4.80;;;2.97;;
59530;SDS011;45349;48.692;8.186;2022-08-01T01:06:23;3.33;;;2.97;;
59530;SDS011;45349;48.692;8.186;2022-08-01T01:08:56;3.33;;;3.03;;
59530;SDS011;45349;48.692;8.186;2022-08-01T01:11:35;5.20;;;3.20;;
59530;SDS011;45349;48.692;8.186;2022-08-01T01:14:13;3.33;;;2.93;;
59530;SDS011;45349;48.692;8.186;2022-08-01T01:16:47;4.53;;;2.77;;
59530;SDS011;45349;48.692;8.186;2022-08-01T01:19:16;3.70;;;3.30;;
59530;SDS011;45349;48.692;8.186;2022-08-01T01:21:54;4.10;;;2.70;;
59530;SDS011;45349;48.692;8.186;2022-08-01T01:24:35;4.47;;;3.13;;
59530;SDS011;45349;48.692;8.186;2022-08-01T01:27:06;3.80;;;3.00;;
59530;SDS011;45349;48.692;8.186;2022-08-01T01:29:46;5.53;;;2.70;;
59530;SDS011;45349;48.692;8.186;2022-08-01T01:32:17;3.80;;;3.10;;
59530;SDS011;45349;48.692;8.186;2022-08-01T01:34:46;5.93;;;3.17;;
59530;SDS011;45349;48.692;8.186;2022-08-01T01:37:16;4.23;;;3.40;;
59530;SDS011;45349;48.692;8.186;2022-08-01T01:39:46;3.13;;;2.83;;
59530;SDS011;45349;48.692;8.186;2022-08-01T01:42:15;5.00;;;3.10;;
59530;SDS011;45349;48.692;8.186;2022-08-01T01:44:45;3.93;;;3.00;;
59530;SDS011;45349;48.692;8.186;2022-08-01T01:47:13;3.63;;;3.10;;
59530;SDS011;45349;48.692;8.186;2022-08-01T01:49:43;5.30;;;3.00;;
59530;SDS011;45349;48.692;8.186;2022-08-01T01:52:12;3.80;;;2.90;;
59530;SDS011;45349;48.692;8.186;2022-08-01T01:54:44;6.17;;;2.90;;
59530;SDS011;45349;48.692;8.186;2022-08-01T01:57:13;3.47;;;3.13;;
59530;SDS011;45349;48.692;8.186;2022-08-01T01:59:42;4.17;;;2.90;;
59530;SDS011;45349;48.692;8.186;2022-08-01T02:02:12;4.30;;;2.87;;
59530;SDS011;45349;48.692;8.186;2022-08-01T02:04:42;3.97;;;2.97;;
59530;SDS011;45349;48.692;8.186;2022-08-01T02:07:10;5.50;;;3.00;;
59530;SDS011;45349;48.692;8.186;2022-08-01T02:09:39;5.30;;;2.97;;
59530;SDS011;45349;48.692;8.186;2022-08-01T02:12:09;3.37;;;2.97;;
59530;SDS011;45349;48.692;8.186;2022-08-01T02:14:37;5.13;;;3.00;;
59530;SDS011;45349;48.692;8.186;2022-08-01T02:17:07;4.87;;;3.13;;
59530;SDS011;45349;48.692;8.186;2022-08-01T02:19:36;3.93;;;2.90;;
59530;SDS011;45349;48.692;8.186;2022-08-01T02:22:04;4.00;;;2.90;;
59530;SDS011;45349;48.692;8.186;2022-08-01T02:24:36;5.37;;;3.07;;
59530;SDS011;45349;48.692;8.186;2022-08-01T02:27:07;4.17;;;2.73;;
59530;SDS011;45349;48.692;8.186;2022-08-01T02:29:37;5.00;;;3.13;;
59530;SDS011;45349;48.692;8.186;2022-08-01T02:32:08;3.40;;;3.00;;
59530;SDS011;45349;48.692;8.186;2022-08-01T02:34:40;5.33;;;2.80;;
59530;SDS011;45349;48.692;8.186;2022-08-01T02:37:10;3.07;;;2.77;;
59530;SDS011;45349;48.692;8.186;2022-08-01T02:39:37;5.00;;;3.30;;
59530;SDS011;45349;48.692;8.186;2022-08-01T02:42:06;3.77;;;2.97;;
59530;SDS011;45349;48.692;8.186;2022-08-01T02:44:35;3.37;;;3.00;;
59530;SDS011;45349;48.692;8.186;2022-08-01T02:47:06;3.07;;;2.60;;
59530;SDS011;45349;48.692;8.186;2022-08-01T02:49:35;3.30;;;3.00;;
59530;SDS011;45349;48.692;8.186;2022-08-01T02:52:05;4.43;;;3.27;;
59530;SDS011;45349;48.692;8.186;2022-08-01T02:54:34;4.70;;;2.83;;
59530;SDS011;45349;48.692;8.186;2022-08-01T02:57:03;2.73;;;2.53;;
59530;SDS011;45349;48.692;8.186;2022-08-01T02:59:32;3.43;;;2.80;;
59530;SDS011;45349;48.692;8.186;2022-08-01T03:02:02;3.70;;;2.53;;
59530;SDS011;45349;48.692;8.186;2022-08-01T03:04:30;5.13;;;3.07;;
59530;SDS011;45349;48.692;8.186;2022-08-01T03:07:02;4.93;;;3.07;;
59530;SDS011;45349;48.692;8.186;2022-08-01T03:09:32;4.73;;;2.70;;
59530;SDS011;45349;48.692;8.186;2022-08-01T03:12:02;3.90;;;2.50;;
59530;SDS011;45349;48.692;8.186;2022-08-01T03:14:32;3.37;;;2.73;;
59530;SDS011;45349;48.692;8.186;2022-08-01T03:17:02;3.20;;;2.90;;
59530;SDS011;45349;48.692;8.186;2022-08-01T03:19:30;2.80;;;2.60;;
59530;SDS011;45349;48.692;8.186;2022-08-01T03:22:00;5.93;;;2.40;;
59530;SDS011;45349;48.692;8.186;2022-08-01T03:24:28;4.17;;;2.77;;
59530;SDS011;45349;48.692;8.186;2022-08-01T03:26:57;3.33;;;2.43;;
59530;SDS011;45349;48.692;8.186;2022-08-01T03:29:25;2.77;;;2.37;;
59530;SDS011;45349;48.692;8.186;2022-08-01T03:31:55;3.73;;;2.87;;
59530;SDS011;45349;48.692;8.186;2022-08-01T03:34:23;3.10;;;2.47;;
59530;SDS011;45349;48.692;8.186;2022-08-01T03:36:52;2.40;;;2.10;;
59530;SDS011;45349;48.692;8.186;2022-08-01T03:39:24;3.67;;;2.37;;
59530;SDS011;45349;48.692;8.186;2022-08-01T03:41:58;3.50;;;2.20;;
59530;SDS011;45349;48.692;8.186;2022-08-01T03:44:27;3.27;;;2.67;;
59530;SDS011;45349;48.692;8.186;2022-08-01T03:47:00;3.63;;;2.37;;
59530;SDS011;45349;48.692;8.186;2022-08-01T03:49:32;2.80;;;2.10;;
59530;SDS011;45349;48.692;8.186;2022-08-01T03:52:04;2.60;;;2.33;;
59530;SDS011;45349;48.692;8.186;2022-08-01T03:54:34;3.30;;;2.40;;
59530;SDS011;45349;48.692;8.186;2022-08-01T03:57:02;4.63;;;2.37;;
59530;SDS011;45349;48.692;8.186;2022-08-01T03:59:31;4.80;;;2.70;;
59530;SDS011;45349;48.692;8.186;2022-08-01T04:02:01;4.57;;;2.50;;
59530;SDS011;45349;48.692;8.186;2022-08-01T04:04:29;3.03;;;2.20;;
59530;SDS011;45349;48.692;8.186;2022-08-01T04:06:56;3.53;;;2.07;;
59530;SDS011;45349;48.692;8.186;2022-08-01T04:09:29;8.40;;;2.63;;
59530;SDS011;45349;48.692;8.186;2022-08-01T04:11:57;4.40;;;2.53;;
59530;SDS011;45349;48.692;8.186;2022-08-01T04:14:24;4.83;;;2.50;;
59530;SDS011;45349;48.692;8.186;2022-08-01T04:16:51;4.50;;;2.40;;
59530;SDS011;45349;48.692;8.186;2022-08-01T04:19:18;2.23;;;2.03;;
59530;SDS011;45349;48.692;8.186;2022-08-01T04:21:45;2.27;;;2.00;;
59530;SDS011;45349;48.692;8.186;2022-08-01T04:24:12;2.40;;;2.20;;
59530;SDS011;45349;48.692;8.186;2022-08-01T04:26:43;3.57;;;2.00;;
59530;SDS011;45349;48.692;8.186;2022-08-01T04:29:12;3.53;;;2.10;;
59530;SDS011;45349;48.692;8.186;2022-08-01T04:31:42;5.67;;;2.20;;
59530;SDS011;45349;48.692;8.186;2022-08-01T04:34:30;3.77;;;2.23;;
59530;SDS011;45349;48.692;8.186;2022-08-01T04:36:59;3.27;;;2.20;;
59530;SDS011;45349;48.692;8.186;2022-08-01T04:39:28;2.70;;;2.10;;
59530;SDS011;45349;48.692;8.186;2022-08-01T04:41:59;3.70;;;2.33;;
59530;SDS011;45349;48.692;8.186;2022-08-01T04:44:30;4.17;;;2.77;;
59530;SDS011;45349;48.692;8.186;2022-08-01T04:46:57;3.20;;;2.10;;
59530;SDS011;45349;48.692;8.186;2022-08-01T04:49:26;3.20;;;1.80;;
59530;SDS011;45349;48.692;8.186;2022-08-01T04:51:53;3.30;;;2.07;;
59530;SDS011;45349;48.692;8.186;2022-08-01T04:54:23;4.27;;;2.37;;
59530;SDS011;45349;48.692;8.186;2022-08-01T04:56:50;7.10;;;2.00;;
59530;SDS011;45349;48.692;8.186;2022-08-01T04:59:18;2.23;;;1.83;;
59530;SDS011;45349;48.692;8.186;2022-08-01T05:02:04;1.90;;;1.80;;
59530;SDS011;45349;48.692;8.186;2022-08-01T05:04:31;3.10;;;1.97;;
59530;SDS011;45349;48.692;8.186;2022-08-01T05:06:58;2.90;;;2.23;;
59530;SDS011;45349;48.692;8.186;2022-08-01T05:09:24;3.00;;;2.37;;
59530;SDS011;45349;48.692;8.186;2022-08-01T05:11:51;6.53;;;2.07;;
59530;SDS011;45349;48.692;8.186;2022-08-01T05:14:18;2.70;;;2.30;;
59530;SDS011;45349;48.692;8.186;2022-08-01T05:16:46;2.30;;;1.93;;
59530;SDS011;45349;48.692;8.186;2022-08-01T05:19:14;3.77;;;2.60;;
59530;SDS011;45349;48.692;8.186;2022-08-01T05:21:41;2.87;;;2.20;;
59530;SDS011;45349;48.692;8.186;2022-08-01T05:24:08;3.30;;;2.33;;
59530;SDS011;45349;48.692;8.186;2022-08-01T05:26:35;5.57;;;2.10;;
59530;SDS011;45349;48.692;8.186;2022-08-01T05:29:02;3.77;;;2.50;;
59530;SDS011;45349;48.692;8.186;2022-08-01T05:31:29;2.63;;;2.23;;
59530;SDS011;45349;48.692;8.186;2022-08-01T05:34:19;3.10;;;1.90;;
59530;SDS011;45349;48.692;8.186;2022-08-01T05:36:46;7.50;;;2.27;;
59530;SDS011;45349;48.692;8.186;2022-08-01T05:39:13;5.10;;;2.20;;
59530;SDS011;45349;48.692;8.186;2022-08-01T05:41:41;2.77;;;2.20;;
59530;SDS011;45349;48.692;8.186;2022-08-01T05:44:08;3.33;;;2.00;;
59530;SDS011;45349;48.692;8.186;2022-08-01T05:46:35;3.67;;;2.03;;
59530;SDS011;45349;48.692;8.186;2022-08-01T05:49:02;4.37;;;2.17;;
59530;SDS011;45349;48.692;8.186;2022-08-01T05:51:32;4.60;;;2.20;;
59530;SDS011;45349;48.692;8.186;2022-08-01T05:53:59;3.57;;;2.30;;
59530;SDS011;45349;48.692;8.186;2022-08-01T05:56:26;2.33;;;2.13;;
59530;SDS011;45349;48.692;8.186;2022-08-01T05:58:53;2.60;;;2.00;;
59530;SDS011;45349;48.692;8.186;2022-08-01T06:01:20;2.50;;;2.30;;
59530;SDS011;45349;48.692;8.186;2022-08-01T06:03:46;3.70;;;2.50;;
59530;SDS011;45349;48.692;8.186;2022-08-01T06:06:13;2.30;;;2.10;;
59530;SDS011;45349;48.692;8.186;2022-08-01T06:08:41;4.90;;;2.20;;
59530;SDS011;45349;48.692;8.186;2022-08-01T06:11:08;3.90;;;2.37;;
59530;SDS011;45349;48.692;8.186;2022-08-01T06:13:35;2.73;;;2.07;;
59530;SDS011;45349;48.692;8.186;2022-08-01T06:16:02;3.97;;;1.90;;
59530;SDS011;45349;48.692;8.186;2022-08-01T06:18:29;2.57;;;2.30;;
59530;SDS011;45349;48.692;8.186;2022-08-01T06:20:56;4.63;;;2.20;;
59530;SDS011;45349;48.692;8.186;2022-08-01T06:23:22;3.10;;;2.43;;
59530;SDS011;45349;48.692;8.186;2022-08-01T06:25:53;2.30;;;2.10;;
59530;SDS011;45349;48.692;8.186;2022-08-01T06:28:20;3.30;;;1.83;;
59530;SDS011;45349;48.692;8.186;2022-08-01T06:30:47;2.40;;;2.20;;
59530;SDS011;45349;48.692;8.186;2022-08-01T06:33:14;3.87;;;2.10;;
59530;SDS011;45349;48.692;8.186;2022-08-01T06:35:41;2.40;;;2.17;;
59530;SDS011;45349;48.692;8.186;2022-08-01T06:38:08;4.27;;;2.10;;
59530;SDS011;45349;48.692;8.186;2022-08-01T06:40:35;3.83;;;1.90;;
59530;SDS011;45349;48.692;8.186;2022-08-01T06:43:04;4.70;;;1.80;;
59530;SDS011;45349;48.692;8.186;2022-08-01T06:45:31;8.23;;;2.40;;
59530;SDS011;45349;48.692;8.186;2022-08-01T06:47:58;4.03;;;1.90;;
59530;SDS011;45349;48.692;8.186;2022-08-01T06:50:25;4.77;;;2.00;;
59530;SDS011;45349;48.692;8.186;2022-08-01T06:52:52;5.40;;;2.10;;
59530;SDS011;45349;48.692;8.186;2022-08-01T06:55:18;2.60;;;2.10;;
59530;SDS011;45349;48.692;8.186;2022-08-01T06:57:46;5.70;;;2.37;;
59530;SDS011;45349;48.692;8.186;2022-08-01T07:00:15;2.93;;;2.20;;
59530;SDS011;45349;48.692;8.186;2022-08-01T07:02:46;3.00;;;2.20;;
59530;SDS011;45349;48.692;8.186;2022-08-01T07:05:12;4.77;;;2.30;;
59530;SDS011;45349;48.692;8.186;2022-08-01T07:07:42;3.00;;;2.20;;
59530;SDS011;45349;48.692;8.186;2022-08-01T07:10:09;3.40;;;2.30;;
59530;SDS011;45349;48.692;8.186;2022-08-01T07:12:37;5.37;;;2.40;;
59530;SDS011;45349;48.692;8.186;2022-08-01T07:15:06;4.87;;;2.57;;
59530;SDS011;45349;48.692;8.186;2022-08-01T07:17:37;6.40;;;2.23;;
59530;SDS011;45349;48.692;8.186;2022-08-01T07:20:06;2.40;;;2.20;;
59530;SDS011;45349;48.692;8.186;2022-08-01T07:22:33;2.83;;;1.93;;
59530;SDS011;45349;48.692;8.186;2022-08-01T07:25:00;3.60;;;2.40;;
59530;SDS011;45349;48.692;8.186;2022-08-01T07:27:46;3.50;;;2.20;;
59530;SDS011;45349;48.692;8.186;2022-08-01T07:30:12;4.90;;;2.50;;
59530;SDS011;45349;48.692;8.186;2022-08-01T07:32:41;2.43;;;2.10;;
59530;SDS011;45349;48.692;8.186;2022-08-01T07:35:08;3.97;;;2.50;;
59530;SDS011;45349;48.692;8.186;2022-08-01T07:37:35;4.77;;;2.70;;
59530;SDS011;45349;48.692;8.186;2022-08-01T07:40:02;2.50;;;2.20;;
59530;SDS011;45349;48.692;8.186;2022-08-01T07:42:30;4.80;;;2.57;;
59530;SDS011;45349;48.692;8.186;2022-08-01T07:44:57;3.53;;;2.40;;
59530;SDS011;45349;48.692;8.186;2022-08-01T07:47:24;3.73;;;2.20;;
59530;SDS011;45349;48.692;8.186;2022-08-01T07:49:58;5.00;;;2.70;;
59530;SDS011;45349;48.692;8.186;2022-08-01T07:52:25;2.20;;;2.00;;
59530;SDS011;45349;48.692;8.186;2022-08-01T07:54:52;2.63;;;2.23;;
59530;SDS011;45349;48.692;8.186;2022-08-01T07:57:20;3.07;;;2.40;;
59530;SDS011;45349;48.692;8.186;2022-08-01T07:59:46;5.00;;;2.20;;
59530;SDS011;45349;48.692;8.186;2022-08-01T08:02:13;4.43;;;2.40;;
59530;SDS011;45349;48.692;8.186;2022-08-01T08:04:40;2.47;;;2.17;;
59530;SDS011;45349;48.692;8.186;2022-08-01T08:07:09;2.83;;;2.50;;
59530;SDS011;45349;48.692;8.186;2022-08-01T08:09:36;5.03;;;2.57;;
59530;SDS011;45349;48.692;8.186;2022-08-01T08:12:02;3.80;;;2.30;;
59530;SDS011;45349;48.692;8.186;2022-08-01T08:14:30;4.13;;;2.00;;
59530;SDS011;45349;48.692;8.186;2022-08-01T08:16:57;4.33;;;2.70;;
59530;SDS011;45349;48.692;8.186;2022-08-01T08:19:23;4.40;;;2.40;;
59530;SDS011;45349;48.692;8.186;2022-08-01T08:21:50;4.13;;;2.33;;
59530;SDS011;45349;48.692;8.186;2022-08-01T08:24:18;3.43;;;2.27;;
59530;SDS011;45349;48.692;8.186;2022-08-01T08:26:50;2.57;;;2.30;;
59530;SDS011;45349;48.692;8.186;2022-08-01T08:29:19;2.70;;;1.90;;
59530;SDS011;45349;48.692;8.186;2022-08-01T08:31:47;2.30;;;2.10;;
59530;SDS011;45349;48.692;8.186;2022-08-01T08:34:14;6.07;;;2.10;;
59530;SDS011;45349;48.692;8.186;2022-08-01T08:36:41;3.53;;;2.03;;
59530;SDS011;45349;48.692;8.186;2022-08-01T08:39:08;2.83;;;2.53;;
59530;SDS011;45349;48.692;8.186;2022-08-01T08:41:36;6.30;;;2.27;;
59530;SDS011;45349;48.692;8.186;2022-08-01T08:44:03;5.23;;;2.80;;
59530;SDS011;45349;48.692;8.186;2022-08-01T08:46:31;4.80;;;2.37;;
59530;SDS011;45349;48.692;8.186;2022-08-01T08:48:59;5.00;;;2.50;;
59530;SDS011;45349;48.692;8.186;2022-08-01T08:51:47;2.30;;;2.10;;
59530;SDS011;45349;48.692;8.186;2022-08-01T08:54:16;4.80;;;2.67;;
59530;SDS011;45349;48.692;8.186;2022-08-01T08:56:47;6.13;;;3.23;;
59530;SDS011;45349;48.692;8.186;2022-08-01T08:59:16;2.50;;;2.27;;
59530;SDS011;45349;48.692;8.186;2022-08-01T09:01:43;3.83;;;2.43;;
59530;SDS011;45349;48.692;8.186;2022-08-01T09:04:11;2.63;;;2.20;;
59530;SDS011;45349;48.692;8.186;2022-08-01T09:06:38;3.53;;;2.73;;
59530;SDS011;45349;48.692;8.186;2022-08-01T09:09:05;4.60;;;2.63;;
59530;SDS011;45349;48.692;8.186;2022-08-01T09:11:33;3.93;;;2.60;;
59530;SDS011;45349;48.692;8.186;2022-08-01T09:14:02;4.22;;;2.55;;
59530;SDS011;45349;48.692;8.186;2022-08-01T09:16:30;4.28;;;3.10;;
59530;SDS011;45349;48.692;8.186;2022-08-01T09:19:10;4.73;;;3.43;;
59530;SDS011;45349;48.692;8.186;2022-08-01T09:21:53;3.40;;;3.00;;
59530;SDS011;45349;48.692;8.186;2022-08-01T09:24:23;3.92;;;2.65;;
59530;SDS011;45349;48.692;8.186;2022-08-01T09:26:51;3.83;;;3.10;;
59530;SDS011;45349;48.692;8.186;2022-08-01T09:29:21;4.83;;;3.50;;
59530;SDS011;45349;48.692;8.186;2022-08-01T09:31:49;4.25;;;3.08;;
59530;SDS011;45349;48.692;8.186;2022-08-01T09:34:23;5.77;;;3.50;;
59530;SDS011;45349;48.692;8.186;2022-08-01T09:36:51;5.32;;;3.22;;
59530;SDS011;45349;48.692;8.186;2022-08-01T09:39:22;4.77;;;3.30;;
59530;SDS011;45349;48.692;8.186;2022-08-01T09:41:50;4.90;;;3.20;;
59530;SDS011;45349;48.692;8.186;2022-08-01T09:44:18;4.22;;;3.70;;
59530;SDS011;45349;48.692;8.186;2022-08-01T09:49:33;3.40;;;3.10;;
59530;SDS011;45349;48.692;8.186;2022-08-01T09:52:10;4.43;;;3.08;;
59530;SDS011;45349;48.692;8.186;2022-08-01T09:54:38;4.47;;;3.13;;
59530;SDS011;45349;48.692;8.186;2022-08-01T09:57:09;3.33;;;2.70;;
59530;SDS011;45349;48.692;8.186;2022-08-01T09:59:56;5.07;;;2.92;;
59530;SDS011;45349;48.692;8.186;2022-08-01T10:02:32;5.10;;;3.10;;
59530;SDS011;45349;48.692;8.186;2022-08-01T10:05:01;3.30;;;2.80;;
59530;SDS011;45349;48.692;8.186;2022-08-01T10:07:29;5.07;;;3.10;;
59530;SDS011;45349;48.692;8.186;2022-08-01T10:09:56;5.47;;;3.20;;
59530;SDS011;45349;48.692;8.186;2022-08-01T10:12:36;3.28;;;2.95;;
59530;SDS011;45349;48.692;8.186;2022-08-01T10:15:04;4.07;;;2.95;;
59530;SDS011;45349;48.692;8.186;2022-08-01T10:17:33;5.07;;;3.55;;
59530;SDS011;45349;48.692;8.186;2022-08-01T10:20:20;4.30;;;3.50;;
59530;SDS011;45349;48.692;8.186;2022-08-01T10:22:47;4.97;;;3.47;;
59530;SDS011;45349;48.692;8.186;2022-08-01T10:25:15;4.43;;;3.53;;
59530;SDS011;45349;48.692;8.186;2022-08-01T10:27:44;3.53;;;2.92;;
59530;SDS011;45349;48.692;8.186;2022-08-01T10:30:12;3.67;;;3.10;;
59530;SDS011;45349;48.692;8.186;2022-08-01T10:32:59;6.57;;;3.30;;
59530;SDS011;45349;48.692;8.186;2022-08-01T10:35:26;4.60;;;3.60;;
59530;SDS011;45349;48.692;8.186;2022-08-01T10:37:54;3.30;;;3.00;;
59530;SDS011;45349;48.692;8.186;2022-08-01T10:40:23;4.78;;;3.08;;
59530;SDS011;45349;48.692;8.186;2022-08-01T10:42:50;5.00;;;3.33;;
59530;SDS011;45349;48.692;8.186;2022-08-01T10:45:18;3.85;;;3.03;;
59530;SDS011;45349;48.692;8.186;2022-08-01T10:47:46;3.67;;;3.20;;
59530;SDS011;45349;48.692;8.186;2022-08-01T10:50:21;3.83;;;3.00;;
59530;SDS011;45349;48.692;8.186;2022-08-01T10:53:03;4.38;;;2.95;;
59530;SDS011;45349;48.692;8.186;2022-08-01T10:55:44;3.90;;;3.00;;
59530;SDS011;45349;48.692;8.186;2022-08-01T10:58:12;3.80;;;3.22;;
59530;SDS011;45349;48.692;8.186;2022-08-01T11:00:39;3.88;;;3.47;;
59530;SDS011;45349;48.692;8.186;2022-08-01T11:03:07;3.75;;;3.10;;
59530;SDS011;45349;48.692;8.186;2022-08-01T11:05:35;5.43;;;3.03;;
59530;SDS011;45349;48.692;8.186;2022-08-01T11:08:03;3.50;;;3.20;;
59530;SDS011;45349;48.692;8.186;2022-08-01T11:10:37;3.60;;;2.88;;
59530;SDS011;45349;48.692;8.186;2022-08-01T11:13:08;3.20;;;2.90;;
59530;SDS011;45349;48.692;8.186;2022-08-01T11:15:36;3.08;;;2.78;;
59530;SDS011;45349;48.692;8.186;2022-08-01T11:18:03;4.25;;;3.05;;
59530;SDS011;45349;48.692;8.186;2022-08-01T11:20:56;4.32;;;3.35;;
59530;SDS011;45349;48.692;8.186;2022-08-01T11:23:24;5.25;;;3.10;;
59530;SDS011;45349;48.692;8.186;2022-08-01T11:26:07;5.03;;;3.05;;
59530;SDS011;45349;48.692;8.186;2022-08-01T11:28:35;5.97;;;3.72;;
59530;SDS011;45349;48.692;8.186;2022-08-01T11:33:55;3.33;;;2.88;;
59530;SDS011;45349;48.692;8.186;2022-08-01T11:36:23;4.03;;;2.75;;
59530;SDS011;45349;48.692;8.186;2022-08-01T11:41:42;2.80;;;2.60;;
59530;SDS011;45349;48.692;8.186;2022-08-01T11:44:11;4.78;;;2.92;;
59530;SDS011;45349;48.692;8.186;2022-08-01T11:49:33;3.33;;;2.50;;
59530;SDS011;45349;48.692;8.186;2022-08-01T11:52:13;3.08;;;2.60;;
59530;SDS011;45349;48.692;8.186;2022-08-01T11:54:41;6.47;;;3.03;;
59530;SDS011;45349;48.692;8.186;2022-08-01T11:57:10;2.97;;;2.45;;
59530;SDS011;45349;48.692;8.186;2022-08-01T11:59:39;4.45;;;2.50;;
59530;SDS011;45349;48.692;8.186;2022-08-01T12:02:17;3.88;;;3.20;;
59530;SDS011;45349;48.692;8.186;2022-08-01T12:04:51;3.28;;;2.83;;
59530;SDS011;45349;48.692;8.186;2022-08-01T12:07:21;3.97;;;3.10;;
59530;SDS011;45349;48.692;8.186;2022-08-01T12:09:56;3.67;;;2.65;;
59530;SDS011;45349;48.692;8.186;2022-08-01T12:12:24;7.45;;;2.95;;
59530;SDS011;45349;48.692;8.186;2022-08-01T12:14:54;4.18;;;2.70;;
59530;SDS011;45349;48.692;8.186;2022-08-01T12:17:29;2.95;;;2.50;;
59530;SDS011;45349;48.692;8.186;2022-08-01T12:19:58;4.07;;;2.75;;
59530;SDS011;45349;48.692;8.186;2022-08-01T12:22:26;2.88;;;2.55;;
59530;SDS011;45349;48.692;8.186;2022-08-01T12:24:53;4.55;;;2.78;;
59530;SDS011;45349;48.692;8.186;2022-08-01T12:27:23;3.22;;;2.63;;
59530;SDS011;45349;48.692;8.186;2022-08-01T12:29:51;3.55;;;2.72;;
59530;SDS011;45349;48.692;8.186;2022-08-01T12:32:21;4.32;;;2.47;;
59530;SDS011;45349;48.692;8.186;2022-08-01T12:34:50;4.30;;;2.92;;
59530;SDS011;45349;48.692;8.186;2022-08-01T12:37:18;2.72;;;2.50;;
59530;SDS011;45349;48.692;8.186;2022-08-01T12:39:46;2.92;;;2.58;;
59530;SDS011;45349;48.692;8.186;2022-08-01T12:42:14;3.05;;;2.40;;
59530;SDS011;45349;48.692;8.186;2022-08-01T12:44:42;4.25;;;2.40;;
59530;SDS011;45349;48.692;8.186;2022-08-01T12:47:11;4.07;;;2.28;;
59530;SDS011;45349;48.692;8.186;2022-08-01T12:49:38;4.25;;;2.28;;
59530;SDS011;45349;48.692;8.186;2022-08-01T12:52:07;3.53;;;2.63;;
59530;SDS011;45349;48.692;8.186;2022-08-01T12:57:28;4.78;;;2.50;;
59530;SDS011;45349;48.692;8.186;2022-08-01T13:00:13;4.93;;;2.28;;
59530;SDS011;45349;48.692;8.186;2022-08-01T13:02:43;3.78;;;2.20;;
59530;SDS011;45349;48.692;8.186;2022-08-01T13:05:11;4.20;;;2.40;;
59530;SDS011;45349;48.692;8.186;2022-08-01T13:07:40;6.13;;;2.30;;
59530;SDS011;45349;48.692;8.186;2022-08-01T13:10:10;2.30;;;2.10;;
59530;SDS011;45349;48.692;8.186;2022-08-01T13:12:38;4.97;;;2.47;;
59530;SDS011;45349;48.692;8.186;2022-08-01T13:15:19;3.50;;;2.33;;
59530;SDS011;45349;48.692;8.186;2022-08-01T13:17:48;3.20;;;2.42;;
59530;SDS011;45349;48.692;8.186;2022-08-01T13:20:26;4.93;;;2.30;;
59530;SDS011;45349;48.692;8.186;2022-08-01T13:23:13;3.42;;;2.45;;
59530;SDS011;45349;48.692;8.186;2022-08-01T13:25:49;2.65;;;2.40;;
59530;SDS011;45349;48.692;8.186;2022-08-01T13:28:19;3.08;;;2.40;;
59530;SDS011;45349;48.692;8.186;2022-08-01T13:30:56;2.80;;;2.10;;
59530;SDS011;45349;48.692;8.186;2022-08-01T13:33:26;3.40;;;2.10;;
59530;SDS011;45349;48.692;8.186;2022-08-01T13:35:54;5.85;;;2.03;;
59530;SDS011;45349;48.692;8.186;2022-08-01T13:38:22;4.35;;;1.98;;
59530;SDS011;45349;48.692;8.186;2022-08-01T13:41:04;1.88;;;1.65;;
59530;SDS011;45349;48.692;8.186;2022-08-01T13:43:50;2.97;;;1.75;;
59530;SDS011;45349;48.692;8.186;2022-08-01T13:46:17;3.78;;;1.80;;
59530;SDS011;45349;48.692;8.186;2022-08-01T13:48:44;4.30;;;1.85;;
59530;SDS011;45349;48.692;8.186;2022-08-01T13:51:11;3.00;;;1.60;;
59530;SDS011;45349;48.692;8.186;2022-08-01T13:53:38;2.90;;;1.80;;
59530;SDS011;45349;48.692;8.186;2022-08-01T13:56:06;4.10;;;1.58;;
59530;SDS011;45349;48.692;8.186;2022-08-01T13:58:33;3.17;;;1.42;;
59530;SDS011;45349;48.692;8.186;2022-08-01T14:01:00;1.98;;;1.45;;
59530;SDS011;45349;48.692;8.186;2022-08-01T14:03:27;2.28;;;1.67;;
59530;SDS011;45349;48.692;8.186;2022-08-01T14:05:53;4.07;;;1.42;;
59530;SDS011;45349;48.692;8.186;2022-08-01T14:08:20;2.65;;;1.60;;
59530;SDS011;45349;48.692;8.186;2022-08-01T14:10:47;2.20;;;1.40;;
59530;SDS011;45349;48.692;8.186;2022-08-01T14:13:15;6.68;;;1.50;;
59530;SDS011;45349;48.692;8.186;2022-08-01T14:15:42;2.10;;;1.33;;
59530;SDS011;45349;48.692;8.186;2022-08-01T14:18:09;2.22;;;1.70;;
59530;SDS011;45349;48.692;8.186;2022-08-01T14:20:36;2.67;;;1.20;;
59530;SDS011;45349;48.692;8.186;2022-08-01T14:23:04;1.52;;;1.10;;
59530;SDS011;45349;48.692;8.186;2022-08-01T14:25:31;2.67;;;1.40;;
59530;SDS011;45349;48.692;8.186;2022-08-01T14:27:57;2.15;;;1.30;;
59530;SDS011;45349;48.692;8.186;2022-08-01T14:30:25;2.22;;;1.05;;
59530;SDS011;45349;48.692;8.186;2022-08-01T14:32:54;1.45;;;1.20;;
59530;SDS011;45349;48.692;8.186;2022-08-01T14:35:21;2.47;;;1.40;;
59530;SDS011;45349;48.692;8.186;2022-08-01T14:37:48;2.05;;;1.25;;
59530;SDS011;45349;48.692;8.186;2022-08-01T14:40:15;3.13;;;1.30;;
59530;SDS011;45349;48.692;8.186;2022-08-01T14:42:41;3.45;;;1.00;;
59530;SDS011;45349;48.692;8.186;2022-08-01T14:45:10;2.53;;;1.10;;
59530;SDS011;45349;48.692;8.186;2022-08-01T14:47:39;1.40;;;1.17;;
59530;SDS011;45349;48.692;8.186;2022-08-01T14:50:08;3.70;;;1.15;;
59530;SDS011;45349;48.692;8.186;2022-08-01T14:52:37;2.20;;;1.17;;
59530;SDS011;45349;48.692;8.186;2022-08-01T14:55:05;1.35;;;1.17;;
59530;SDS011;45349;48.692;8.186;2022-08-01T14:57:33;4.43;;;1.25;;
59530;SDS011;45349;48.692;8.186;2022-08-01T15:00:01;1.38;;;1.20;;
59530;SDS011;45349;48.692;8.186;2022-08-01T15:02:29;1.20;;;1.02;;
59530;SDS011;45349;48.692;8.186;2022-08-01T15:04:57;2.00;;;1.25;;
59530;SDS011;45349;48.692;8.186;2022-08-01T15:07:23;3.05;;;1.23;;
59530;SDS011;45349;48.692;8.186;2022-08-01T15:09:50;2.05;;;0.90;;
59530;SDS011;45349;48.692;8.186;2022-08-01T15:12:17;0.75;;;0.73;;
59530;SDS011;45349;48.692;8.186;2022-08-01T15:14:43;1.80;;;1.10;;